Time;durP1;ratioP1;P1;durP2;ratioP2;P2;SDS_P1;SDS_P2;PMS_P1;PMS_P2;Temp;Humidity;BMP_temperature;BMP_pressure;BME280_temperature;BME280_humidity;BME280_pressure;Samples;Min_cycle;Max_cycle;Signal;HPM_P1;HPM_P2
2023/03/09 00:00:10;;;;;;;3.80;1.70;;;;;;;17.38;53.14;97981.38;5088116;28;20552;-61
2023/03/09 00:02:36;;;;;;;7.40;2.50;;;;;;;17.32;53.79;97993.69;5088796;28;20194;-62
2023/03/09 00:05:01;;;;;;;4.83;2.03;;;;;;;17.32;53.87;98010.81;5088348;28;21064;-61
2023/03/09 00:07:30;;;;;;;4.50;2.10;;;;;;;17.23;53.65;97993.41;5091135;28;20186;-62
2023/03/09 00:09:56;;;;;;;7.17;2.13;;;;;;;17.20;53.98;97995.06;5084818;28;20268;-62
2023/03/09 00:12:22;;;;;;;4.93;2.03;;;;;;;17.17;53.77;97998.78;5054712;28;20911;-62
2023/03/09 00:14:51;;;;;;;3.87;1.70;;;;;;;17.12;54.00;98007.00;5085032;28;20179;-61
2023/03/09 00:17:17;;;;;;;5.77;1.90;;;;;;;17.14;54.54;98005.34;5089903;28;20903;-61
2023/03/09 00:19:42;;;;;;;3.93;1.73;;;;;;;17.16;53.77;98022.03;5070333;28;20444;-61
2023/03/09 00:22:08;;;;;;;5.83;2.10;;;;;;;17.13;53.87;98006.56;5089701;28;20183;-61
2023/03/09 00:24:33;;;;;;;9.37;2.00;;;;;;;17.13;53.48;98005.75;5092770;28;20206;-61
2023/03/09 00:26:59;;;;;;;7.17;1.80;;;;;;;17.12;53.66;98002.13;5092851;28;20249;-61
2023/03/09 00:29:26;;;;;;;2.97;1.50;;;;;;;17.12;53.96;97998.44;5091687;28;20197;-61
2023/03/09 00:31:52;;;;;;;4.37;2.47;;;;;;;17.11;53.78;97989.06;5092726;28;20451;-62
2023/03/09 00:34:18;;;;;;;5.37;1.67;;;;;;;17.11;53.73;97991.13;5092483;28;20404;-61
2023/03/09 00:36:43;;;;;;;6.70;2.20;;;;;;;17.11;53.69;97994.78;5091492;28;20443;-61
2023/03/09 00:39:09;;;;;;;6.23;2.10;;;;;;;17.11;53.88;98008.22;5092448;28;20166;-62
2023/03/09 00:41:35;;;;;;;5.97;2.23;;;;;;;17.09;54.00;98014.34;5092565;28;20170;-62
2023/03/09 00:44:01;;;;;;;6.97;1.80;;;;;;;17.09;53.68;98020.06;5091030;28;20463;-62
2023/03/09 00:46:27;;;;;;;3.90;1.60;;;;;;;17.19;53.52;98030.53;5091872;28;20201;-62
2023/03/09 00:48:53;;;;;;;4.43;1.67;;;;;;;17.19;53.68;98024.81;5095027;28;20478;-62
2023/03/09 00:51:18;;;;;;;3.40;1.50;;;;;;;17.13;53.69;98040.78;5091374;28;20869;-62
2023/03/09 00:53:44;;;;;;;5.00;1.63;;;;;;;17.10;53.70;98032.28;5092303;28;20182;-62
2023/03/09 00:56:16;;;;;;;5.00;1.67;;;;;;;17.11;53.72;98045.28;5094919;28;20178;-61
2023/03/09 00:58:41;;;;;;;3.67;1.70;;;;;;;17.14;53.60;98050.13;5073719;28;20186;-62
2023/03/09 01:01:07;;;;;;;4.47;1.63;;;;;;;17.12;53.29;98061.97;5092095;28;20443;-62
2023/03/09 01:03:33;;;;;;;4.33;1.73;;;;;;;17.09;53.57;98051.41;5073925;28;20618;-62
2023/03/09 01:05:59;;;;;;;4.57;1.70;;;;;;;17.09;53.23;98054.28;5091179;28;20447;-62
2023/03/09 01:08:24;;;;;;;4.77;1.70;;;;;;;17.08;53.47;98052.66;5094632;28;20170;-62
2023/03/09 01:10:50;;;;;;;3.63;1.70;;;;;;;17.09;53.51;98077.06;5110866;28;20977;-62
2023/03/09 01:13:15;;;;;;;6.80;1.83;;;;;;;17.10;53.55;98072.19;5094306;28;20195;-61
2023/03/09 01:15:41;;;;;;;4.30;1.80;;;;;;;17.09;53.71;98070.56;5093735;28;20188;-61
2023/03/09 01:18:06;;;;;;;3.90;1.60;;;;;;;17.07;53.51;98067.34;5111583;28;20648;-61
2023/03/09 01:20:31;;;;;;;3.40;1.60;;;;;;;17.12;53.62;98061.16;5112410;28;20170;-61
2023/03/09 01:22:58;;;;;;;3.30;1.70;;;;;;;17.10;53.48;98049.38;5111328;28;20185;-61
2023/03/09 01:25:23;;;;;;;4.07;1.60;;;;;;;17.08;53.39;98043.28;5111692;28;20198;-61
2023/03/09 01:27:50;;;;;;;5.80;1.60;;;;;;;17.09;53.55;98051.41;5111997;28;20419;-62
2023/03/09 01:30:16;;;;;;;3.97;1.60;;;;;;;17.11;53.51;98048.94;5076652;28;20539;-61
2023/03/09 01:32:41;;;;;;;7.07;1.87;;;;;;;17.09;53.65;98053.44;5111705;28;20436;-61
2023/03/09 01:35:07;;;;;;;3.40;1.40;;;;;;;17.06;53.61;98052.25;5112123;28;20628;-61
2023/03/09 01:37:32;;;;;;;2.93;1.87;;;;;;;17.15;53.47;98034.66;5112206;28;20162;-61
2023/03/09 01:39:58;;;;;;;5.93;1.50;;;;;;;17.15;53.65;98044.00;5112374;28;20195;-61
2023/03/09 01:42:23;;;;;;;3.20;1.60;;;;;;;17.15;53.45;98035.44;5093519;28;20550;-61
2023/03/09 01:45:24;;;;;;;5.03;1.43;;;;;;;17.11;53.70;98046.09;5112143;28;20669;-61
2023/03/09 01:47:50;;;;;;;3.80;1.43;;;;;;;17.13;53.35;98042.81;5030239;28;20219;-61
2023/03/09 01:50:16;;;;;;;3.20;1.23;;;;;;;17.10;53.48;98052.25;5094716;28;20428;-61
2023/03/09 01:52:42;;;;;;;3.20;1.90;;;;;;;17.09;53.42;98051.41;5077143;28;20668;-62
2023/03/09 01:55:10;;;;;;;4.63;1.70;;;;;;;17.07;53.22;98045.34;5093987;28;20447;-62
2023/03/09 01:57:44;;;;;;;7.03;1.80;;;;;;;17.07;53.43;98045.34;5110826;28;20906;-61
2023/03/09 02:00:12;;;;;;;3.50;1.67;;;;;;;17.09;53.20;98047.75;5111952;28;20468;-61
2023/03/09 02:02:39;;;;;;;3.17;1.50;;;;;;;17.05;53.60;98044.94;5110852;28;20436;-61
2023/03/09 02:05:07;;;;;;;3.93;1.50;;;;;;;17.05;53.56;98038.47;5092888;28;20479;-61
2023/03/09 02:07:34;;;;;;;5.00;1.20;;;;;;;17.05;53.33;98044.94;5093055;28;20403;-61
2023/03/09 02:10:32;;;;;;;4.00;1.80;;;;;;;17.03;53.40;98052.31;5093013;28;20474;-61
2023/03/09 02:13:01;;;;;;;2.50;1.40;;;;;;;17.02;53.65;98065.75;5095240;27;20459;-62
2023/03/09 02:15:27;;;;;;;5.77;1.60;;;;;;;17.09;53.31;98064.84;5111364;28;20423;-61
2023/03/09 02:17:52;;;;;;;4.60;1.50;;;;;;;17.13;53.27;98080.69;5110391;28;20496;-61
2023/03/09 02:20:52;;;;;;;2.53;1.47;;;;;;;17.09;53.14;98087.66;5076029;28;20580;-61
2023/03/09 02:23:50;;;;;;;16.30;3.90;;;;;;;17.02;53.47;98102.00;5111062;28;20174;-61
2023/03/09 02:26:54;;;;;;;5.67;1.60;;;;;;;17.05;53.14;98143.91;5077518;28;20493;-61
2023/03/09 02:29:19;;;;;;;3.13;1.50;;;;;;;17.06;53.04;98148.38;5111098;28;20384;-62
2023/03/09 02:31:44;;;;;;;4.63;1.70;;;;;;;17.08;53.21;98195.19;5109645;28;20787;-61
2023/03/09 02:34:10;;;;;;;2.67;1.40;;;;;;;17.08;53.09;98200.91;5110964;28;20651;-61
2023/03/09 02:36:35;;;;;;;3.70;1.50;;;;;;;17.10;53.11;98215.53;5110189;28;20178;-61
2023/03/09 02:39:23;;;;;;;3.40;1.50;;;;;;;17.10;53.18;98229.00;5106543;27;20584;-61
2023/03/09 02:41:49;;;;;;;3.27;1.70;;;;;;;17.11;53.04;98230.59;5056402;28;20193;-61
2023/03/09 02:44:14;;;;;;;2.20;1.20;;;;;;;17.10;53.31;98243.25;5090103;28;20463;-61
2023/03/09 02:46:40;;;;;;;6.23;1.63;;;;;;;17.10;53.02;98266.84;5092615;28;20633;-61
2023/03/09 02:49:05;;;;;;;3.60;1.40;;;;;;;17.09;53.16;98268.06;5110901;28;20166;-61
2023/03/09 02:51:31;;;;;;;3.80;1.27;;;;;;;17.09;53.31;98256.69;5109877;28;20181;-61
2023/03/09 02:53:56;;;;;;;4.17;1.50;;;;;;;17.09;53.01;98258.69;5110489;28;20166;-62
2023/03/09 02:56:21;;;;;;;6.67;1.53;;;;;;;17.08;52.88;98257.09;5109251;28;20180;-62
2023/03/09 02:58:47;;;;;;;2.80;1.40;;;;;;;17.08;53.23;98263.63;5110397;28;20181;-62
2023/03/09 03:01:12;;;;;;;4.17;1.40;;;;;;;17.09;53.14;98261.56;5112352;27;20518;-61
2023/03/09 03:03:38;;;;;;;4.57;2.00;;;;;;;17.08;52.93;98269.31;5110005;28;20700;-61
2023/03/09 03:06:03;;;;;;;3.17;2.03;;;;;;;17.11;53.19;98285.56;5110430;28;20215;-61
2023/03/09 03:08:30;;;;;;;4.53;1.60;;;;;;;17.16;53.12;98290.81;5114633;27;20594;-61
2023/03/09 03:10:55;;;;;;;2.50;1.13;;;;;;;17.14;53.18;98290.44;5130924;27;20235;-61
2023/03/09 03:13:21;;;;;;;3.03;1.30;;;;;;;17.10;53.39;98298.19;5128302;27;20791;-61
2023/03/09 03:15:46;;;;;;;2.93;1.40;;;;;;;17.07;53.12;98301.91;5110152;28;20548;-62
2023/03/09 03:18:12;;;;;;;3.70;1.30;;;;;;;17.06;53.08;98311.66;5109971;28;20173;-61
2023/03/09 03:20:37;;;;;;;4.00;1.80;;;;;;;17.09;53.11;98315.72;5109094;28;20181;-62
2023/03/09 03:23:02;;;;;;;3.63;1.40;;;;;;;17.10;52.97;98323.88;5109798;28;20666;-62
2023/03/09 03:25:28;;;;;;;5.37;1.40;;;;;;;17.05;52.96;98332.84;5108781;28;20197;-61
2023/03/09 03:27:53;;;;;;;2.90;1.30;;;;;;;17.07;53.04;98347.53;5109812;28;20680;-61
2023/03/09 03:30:19;;;;;;;2.60;1.33;;;;;;;17.06;53.52;98362.19;5091219;28;20185;-61
2023/03/09 03:32:45;;;;;;;3.10;1.60;;;;;;;17.05;53.05;98366.28;5109206;28;20220;-62
2023/03/09 03:35:11;;;;;;;5.33;1.33;;;;;;;17.05;53.16;98367.06;5110205;28;20177;-61
2023/03/09 03:37:37;;;;;;;2.03;1.00;;;;;;;17.05;53.07;98380.53;5109134;28;20942;-62
2023/03/09 03:40:06;;;;;;;2.50;1.30;;;;;;;17.05;52.88;98378.47;5109740;28;20426;-61
2023/03/09 03:42:32;;;;;;;4.20;1.40;;;;;;;17.05;53.28;98387.03;5092246;28;20700;-61
2023/03/09 03:44:57;;;;;;;2.43;1.20;;;;;;;17.06;53.22;98404.94;5108950;28;20466;-62
2023/03/09 03:47:22;;;;;;;2.60;1.43;;;;;;;17.06;53.30;98391.50;5109939;28;20170;-62
2023/03/09 03:49:48;;;;;;;3.50;1.57;;;;;;;17.03;53.03;98417.19;5109015;28;20178;-62
2023/03/09 03:52:13;;;;;;;3.90;1.63;;;;;;;17.00;53.14;98423.72;5111517;28;20180;-62
2023/03/09 03:54:39;;;;;;;2.70;1.30;;;;;;;17.02;52.97;98416.38;5114009;28;20172;-61
2023/03/09 03:57:04;;;;;;;2.80;1.30;;;;;;;17.02;52.94;98410.69;5113141;28;20182;-62
2023/03/09 03:59:30;;;;;;;2.20;1.20;;;;;;;17.06;52.85;98413.50;5113330;28;20170;-61
2023/03/09 04:01:55;;;;;;;2.10;1.13;;;;;;;17.07;53.08;98415.94;5112878;28;20181;-62
2023/03/09 04:04:21;;;;;;;3.17;1.50;;;;;;;17.08;52.77;98419.59;5116907;27;20193;-62
2023/03/09 04:06:47;;;;;;;3.63;1.53;;;;;;;17.06;52.79;98427.75;5112681;28;20186;-62
2023/03/09 04:09:12;;;;;;;4.13;1.10;;;;;;;17.08;52.77;98440.38;5113674;28;20316;-62
2023/03/09 04:11:38;;;;;;;2.50;1.40;;;;;;;17.09;52.92;98441.16;5094699;28;20872;-62
2023/03/09 04:14:03;;;;;;;4.43;1.10;;;;;;;17.08;53.18;98454.63;5113224;28;20197;-62
2023/03/09 04:16:29;;;;;;;3.30;1.27;;;;;;;17.06;52.96;98456.28;5112679;28;20178;-62
2023/03/09 04:18:54;;;;;;;2.10;1.03;;;;;;;17.06;52.97;98462.75;5113183;28;20196;-62
2023/03/09 04:21:19;;;;;;;2.70;1.17;;;;;;;17.06;52.90;98465.63;5113174;28;20158;-62
2023/03/09 04:23:48;;;;;;;2.63;1.13;;;;;;;17.06;52.95;98471.31;5112463;28;20205;-62
2023/03/09 04:26:13;;;;;;;2.37;1.10;;;;;;;17.03;52.73;98471.34;5094235;28;20346;-62
2023/03/09 04:28:38;;;;;;;2.40;1.10;;;;;;;17.03;53.26;98477.88;5112892;28;20886;-62
2023/03/09 04:31:04;;;;;;;3.60;1.40;;;;;;;17.05;53.05;98491.72;5112523;28;20178;-62
2023/03/09 04:33:30;;;;;;;1.80;1.23;;;;;;;17.07;53.03;98503.50;5112254;28;20239;-62
2023/03/09 04:35:55;;;;;;;3.00;1.60;;;;;;;17.08;52.95;98502.25;5113012;28;20218;-62
2023/03/09 04:38:21;;;;;;;3.43;1.60;;;;;;;17.10;52.98;98503.47;5112387;28;20177;-62
2023/03/09 04:40:46;;;;;;;2.43;1.00;;;;;;;17.10;53.09;98509.19;5113294;28;20661;-62
2023/03/09 04:43:11;;;;;;;2.60;1.63;;;;;;;17.09;52.77;98512.44;5112232;28;20191;-62
2023/03/09 04:45:37;;;;;;;3.33;1.40;;;;;;;17.05;53.22;98520.22;5111833;28;20239;-62
2023/03/09 04:48:02;;;;;;;4.33;1.37;;;;;;;17.07;52.84;98524.28;5112565;28;20185;-61
2023/03/09 04:50:28;;;;;;;2.73;1.40;;;;;;;17.05;53.25;98531.63;5115218;27;20177;-62
2023/03/09 04:52:55;;;;;;;2.40;1.17;;;;;;;17.06;53.27;98536.09;5096217;28;20251;-62
2023/03/09 04:55:21;;;;;;;2.90;1.30;;;;;;;17.06;53.57;98534.03;5112739;28;20161;-62
2023/03/09 04:57:46;;;;;;;2.17;1.30;;;;;;;17.06;53.02;98539.72;5111057;28;20442;-62
2023/03/09 05:00:12;;;;;;;2.20;1.23;;;;;;;17.01;53.40;98543.00;5093908;28;20181;-62
2023/03/09 05:02:38;;;;;;;2.57;1.33;;;;;;;17.05;53.18;98548.72;5111950;28;20208;-62
2023/03/09 05:05:05;;;;;;;5.03;1.30;;;;;;;17.01;52.85;98543.00;5101319;28;21302;-62
2023/03/09 05:07:30;;;;;;;2.50;1.60;;;;;;;17.02;52.90;98550.38;5090254;28;20182;-62
2023/03/09 05:09:56;;;;;;;2.90;1.20;;;;;;;17.00;52.83;98549.16;5107722;28;20845;-62
2023/03/09 05:12:21;;;;;;;2.00;1.10;;;;;;;17.01;52.98;98543.00;5111190;28;20170;-62
2023/03/09 05:14:46;;;;;;;2.13;1.07;;;;;;;17.00;53.30;98541.41;5113727;27;20170;-62
2023/03/09 05:17:12;;;;;;;2.33;1.30;;;;;;;16.98;53.24;98555.25;5110858;28;20230;-62
2023/03/09 05:19:37;;;;;;;2.60;1.33;;;;;;;17.00;53.07;98543.44;5111726;28;20218;-62
2023/03/09 05:22:03;;;;;;;2.20;1.13;;;;;;;17.02;52.79;98556.06;5111306;28;20185;-61
2023/03/09 05:24:29;;;;;;;3.00;1.40;;;;;;;17.04;52.98;98567.03;5095209;28;20206;-62
2023/03/09 05:26:54;;;;;;;2.50;1.07;;;;;;;17.08;52.81;98577.22;5094371;28;20182;-62
2023/03/09 05:29:19;;;;;;;4.63;1.20;;;;;;;17.08;52.95;98573.53;5111182;28;20196;-62
2023/03/09 05:31:45;;;;;;;3.60;1.67;;;;;;;17.06;52.58;98562.53;5076919;28;20178;-62
2023/03/09 05:34:10;;;;;;;3.03;1.37;;;;;;;17.07;53.00;98578.44;5110608;28;20194;-62
2023/03/09 05:36:36;;;;;;;2.70;1.20;;;;;;;17.07;52.96;98575.59;5112022;28;20648;-63
2023/03/09 05:39:01;;;;;;;2.40;1.17;;;;;;;17.06;53.00;98578.84;5111794;28;20177;-63
2023/03/09 05:41:27;;;;;;;1.97;1.23;;;;;;;17.07;52.83;98581.31;5111011;28;20182;-62
2023/03/09 05:43:52;;;;;;;2.10;1.00;;;;;;;17.06;52.76;98576.00;5111720;28;20192;-62
2023/03/09 05:46:18;;;;;;;2.43;1.00;;;;;;;17.06;53.33;98576.00;5111225;28;20185;-62
2023/03/09 05:48:45;;;;;;;3.20;1.10;;;;;;;17.06;52.64;98570.31;5111873;28;20239;-62
2023/03/09 05:51:10;;;;;;;3.17;0.90;;;;;;;17.03;52.72;98580.50;5111104;28;20189;-62
2023/03/09 05:53:36;;;;;;;3.17;1.40;;;;;;;17.02;52.93;98581.72;5111341;28;20423;-62
2023/03/09 05:56:01;;;;;;;2.50;1.20;;;;;;;17.06;52.82;98593.91;5093265;28;20254;-62
2023/03/09 05:58:27;;;;;;;1.90;1.13;;;;;;;17.08;52.76;98594.31;5110293;28;20196;-62
2023/03/09 06:00:53;;;;;;;2.53;1.07;;;;;;;17.08;52.81;98597.19;5111122;27;20181;-62
2023/03/09 06:03:19;;;;;;;3.23;1.17;;;;;;;17.09;52.68;98607.34;5110224;27;20427;-62
2023/03/09 06:05:45;;;;;;;1.50;0.80;;;;;;;17.10;52.65;98608.19;5111086;28;20237;-62
2023/03/09 06:08:11;;;;;;;2.30;1.10;;;;;;;17.00;53.04;98606.97;5110358;28;20450;-62
2023/03/09 06:10:36;;;;;;;2.37;1.13;;;;;;;17.07;53.37;98614.69;5111298;28;20226;-62
2023/03/09 06:13:02;;;;;;;5.80;1.30;;;;;;;17.04;52.62;98622.03;5110689;28;20264;-62
2023/03/09 06:15:27;;;;;;;2.10;1.07;;;;;;;17.05;52.90;98612.25;5111151;28;20189;-62
2023/03/09 06:17:53;;;;;;;2.93;1.00;;;;;;;17.09;52.91;98617.94;5110286;28;20242;-62
2023/03/09 06:20:18;;;;;;;2.83;1.10;;;;;;;17.07;53.44;98606.97;5108533;28;20189;-62
2023/03/09 06:22:44;;;;;;;3.20;0.97;;;;;;;17.08;52.92;98617.13;5092156;28;20197;-61
2023/03/09 06:25:10;;;;;;;1.90;1.00;;;;;;;17.06;52.70;98624.47;5109515;28;20197;-62
2023/03/09 06:27:35;;;;;;;3.30;1.30;;;;;;;17.04;52.81;98626.91;5109547;28;20270;-62
2023/03/09 06:30:01;;;;;;;1.80;1.00;;;;;;;17.04;52.86;98629.75;5093990;28;20264;-62
2023/03/09 06:32:27;;;;;;;2.30;1.17;;;;;;;17.04;52.89;98626.91;5106070;28;20538;-62
2023/03/09 06:34:52;;;;;;;2.67;1.30;;;;;;;17.01;53.17;98633.44;5090099;28;20215;-62
2023/03/09 06:37:17;;;;;;;4.00;1.30;;;;;;;17.05;53.12;98637.91;5103435;28;20178;-62
2023/03/09 06:39:43;;;;;;;2.20;1.33;;;;;;;17.04;52.60;98644.00;5110363;28;20178;-62
2023/03/09 06:42:09;;;;;;;1.60;0.80;;;;;;;17.01;52.91;98636.28;5110167;28;20173;-62
2023/03/09 06:44:34;;;;;;;2.23;1.20;;;;;;;17.01;52.81;98636.28;5091302;28;20226;-62
2023/03/09 06:47:00;;;;;;;2.67;1.17;;;;;;;17.03;52.90;98640.38;5110168;28;20165;-62
2023/03/09 06:49:25;;;;;;;2.83;1.30;;;;;;;17.02;52.47;98635.88;5109661;28;21159;-62
2023/03/09 06:51:50;;;;;;;2.63;1.00;;;;;;;17.05;52.61;98645.66;5115577;27;20173;-62
2023/03/09 06:54:16;;;;;;;2.07;1.00;;;;;;;17.07;52.52;98649.72;5131082;27;20177;-62
2023/03/09 06:56:41;;;;;;;2.10;1.20;;;;;;;17.05;52.50;98646.44;5115948;27;20193;-62
2023/03/09 06:59:07;;;;;;;2.70;0.97;;;;;;;17.04;52.93;98658.25;5109937;28;20173;-62
2023/03/09 07:01:33;;;;;;;2.37;1.10;;;;;;;17.01;52.96;98665.59;5110246;28;20185;-61
2023/03/09 07:03:59;;;;;;;1.90;0.90;;;;;;;17.02;52.81;98667.25;5111624;27;20300;-62
2023/03/09 07:06:24;;;;;;;2.63;1.20;;;;;;;17.01;52.99;98662.75;5108404;28;20442;-62
2023/03/09 07:08:50;;;;;;;2.87;1.23;;;;;;;17.01;52.61;98662.75;5091301;28;20638;-62
2023/03/09 07:11:15;;;;;;;3.77;1.10;;;;;;;17.07;52.58;98672.53;5107813;28;20186;-61
2023/03/09 07:13:41;;;;;;;2.23;1.20;;;;;;;17.08;52.22;98673.31;5094837;27;20190;-62
2023/03/09 07:16:07;;;;;;;5.60;1.20;;;;;;;16.94;52.70;98671.31;5103411;28;20230;-62
2023/03/09 07:18:32;;;;;;;3.47;1.73;;;;;;;16.78;52.94;98682.34;5109196;28;20166;-62
2023/03/09 07:21:00;;;;;;;7.30;2.83;;;;;;;17.27;55.43;98690.81;5107852;28;20306;-62
2023/03/09 07:23:26;;;;;;;12.27;2.93;;;;;;;17.38;55.39;98691.59;5110016;28;20188;-62
2023/03/09 07:25:51;;;;;;;10.03;2.67;;;;;;;17.36;55.49;98698.94;5110587;28;20455;-62
2023/03/09 07:28:17;;;;;;;12.60;2.10;;;;;;;17.39;54.56;98704.66;5117185;28;20178;-62
2023/03/09 07:30:42;;;;;;;16.70;3.43;;;;;;;17.43;54.24;98705.47;5110707;28;20185;-62
2023/03/09 07:33:08;;;;;;;11.83;2.40;;;;;;;17.36;54.28;98716.84;5111564;28;20173;-62
2023/03/09 07:35:37;;;;;;;16.37;4.13;;;;;;;17.46;54.09;98713.19;5097353;28;20181;-62
2023/03/09 07:38:02;;;;;;;11.30;2.70;;;;;;;17.55;54.20;98724.97;5116020;28;20177;-62
2023/03/09 07:40:27;;;;;;;8.17;2.27;;;;;;;17.63;53.61;98723.75;5096802;28;21461;-63
2023/03/09 07:42:53;;;;;;;10.10;1.90;;;;;;;17.57;52.64;98728.25;5115674;28;20192;-63
2023/03/09 07:45:19;;;;;;;7.60;2.03;;;;;;;17.57;53.06;98741.69;5115822;28;20676;-62
2023/03/09 07:47:44;;;;;;;12.27;2.20;;;;;;;17.69;52.94;98744.91;5114110;28;20177;-63
2023/03/09 07:50:10;;;;;;;8.63;1.80;;;;;;;17.89;52.53;98751.78;5113259;28;20407;-63
2023/03/09 07:52:36;;;;;;;11.00;2.30;;;;;;;17.90;52.18;98750.53;5097367;28;20230;-62
2023/03/09 07:55:01;;;;;;;9.43;2.37;;;;;;;17.93;52.31;98755.44;5112703;28;20606;-63
2023/03/09 07:57:31;;;;;;;10.00;2.07;;;;;;;18.03;51.97;98768.03;5078196;28;20181;-63
2023/03/09 07:59:56;;;;;;;12.93;3.93;;;;;;;17.71;52.36;98759.56;5110358;28;20181;-63
2023/03/09 08:02:21;;;;;;;9.77;2.40;;;;;;;17.74;53.02;98767.31;5128362;27;20486;-63
2023/03/09 08:04:47;;;;;;;12.57;2.43;;;;;;;17.81;52.79;98780.75;5115222;27;20205;-63
2023/03/09 08:07:13;;;;;;;9.33;2.60;;;;;;;17.86;53.38;98783.19;5101950;28;20174;-63
2023/03/09 08:09:38;;;;;;;8.37;2.40;;;;;;;17.77;54.67;98779.94;5114872;28;20229;-62
2023/03/09 08:12:04;;;;;;;7.60;2.30;;;;;;;17.76;55.28;98795.47;5115145;28;20435;-62
2023/03/09 08:14:30;;;;;;;9.53;2.97;;;;;;;17.72;54.66;98792.63;5115448;28;20218;-63
2023/03/09 08:16:56;;;;;;;11.00;2.70;;;;;;;17.70;54.77;98799.97;5115389;28;20262;-63
2023/03/09 08:19:22;;;;;;;12.87;2.87;;;;;;;17.66;54.71;98804.88;5095964;28;20958;-62
2023/03/09 08:21:48;;;;;;;11.53;2.10;;;;;;;17.73;55.02;98808.50;5115448;28;20672;-62
2023/03/09 08:24:14;;;;;;;11.40;2.53;;;;;;;17.82;54.67;98793.81;5114261;28;20684;-63
2023/03/09 08:26:40;;;;;;;15.37;2.37;;;;;;;17.69;54.26;98789.75;5100947;28;20427;-62
2023/03/09 08:29:05;;;;;;;12.50;1.87;;;;;;;17.64;54.16;98804.44;5101306;28;20443;-62
2023/03/09 08:31:31;;;;;;;11.60;2.07;;;;;;;17.55;54.05;98796.31;5115072;28;20181;-62
2023/03/09 08:33:56;;;;;;;8.40;2.03;;;;;;;17.51;54.27;98803.25;5115033;28;20213;-62
2023/03/09 08:36:22;;;;;;;15.30;3.13;;;;;;;17.49;54.08;98803.66;5116277;28;20162;-62
2023/03/09 08:38:48;;;;;;;12.87;3.63;;;;;;;17.45;53.83;98814.25;5111859;28;20181;-62
2023/03/09 08:41:13;;;;;;;16.53;3.40;;;;;;;17.45;53.64;98819.19;5094882;28;20228;-62
2023/03/09 08:43:39;;;;;;;30.00;4.37;;;;;;;17.42;53.50;98820.81;5112778;28;20411;-63
2023/03/09 08:46:04;;;;;;;13.63;3.20;;;;;;;17.42;53.76;98826.50;5112313;28;20189;-62
2023/03/09 08:48:30;;;;;;;14.00;3.97;;;;;;;17.41;53.60;98829.75;5112318;28;20197;-62
2023/03/09 08:50:56;;;;;;;19.47;3.30;;;;;;;17.40;53.42;98828.16;5111987;28;20558;-62
2023/03/09 08:53:22;;;;;;;16.17;4.00;;;;;;;17.40;53.69;98831.78;5115458;27;20876;-62
2023/03/09 08:55:47;;;;;;;21.30;3.67;;;;;;;17.39;54.32;98843.59;5112818;28;20404;-62
2023/03/09 08:58:13;;;;;;;17.40;3.10;;;;;;;17.40;53.76;98851.75;5106684;28;20713;-62
2023/03/09 09:00:38;;;;;;;10.27;3.77;;;;;;;17.43;54.05;98842.41;5107875;28;20645;-62
2023/03/09 09:03:04;;;;;;;12.50;3.77;;;;;;;17.41;54.60;98847.69;5104173;28;20182;-62
2023/03/09 09:05:29;;;;;;;9.50;2.30;;;;;;;17.42;54.83;98851.34;5111680;27;20225;-62
2023/03/09 09:07:55;;;;;;;14.93;3.73;;;;;;;17.41;55.08;98853.38;5111932;28;20194;-62
2023/03/09 09:10:20;;;;;;;21.30;3.70;;;;;;;17.42;54.56;98849.34;5112412;28;20221;-62
2023/03/09 09:12:46;;;;;;;15.17;2.83;;;;;;;17.42;54.93;98859.91;5112803;27;20219;-62
2023/03/09 09:15:13;;;;;;;23.83;3.70;;;;;;;17.45;54.93;98861.97;5112840;28;20173;-62
2023/03/09 09:17:39;;;;;;;14.67;2.93;;;;;;;17.44;54.33;98863.16;5111763;28;20181;-62
2023/03/09 09:20:05;;;;;;;14.80;3.00;;;;;;;17.44;54.56;98871.72;5112458;28;20836;-62
2023/03/09 09:22:31;;;;;;;19.10;3.57;;;;;;;17.46;54.79;98877.84;5093695;28;20185;-62
2023/03/09 09:24:56;;;;;;;14.40;2.33;;;;;;;17.45;54.41;98877.03;5110792;28;20599;-62
2023/03/09 09:27:21;;;;;;;14.30;2.73;;;;;;;17.42;54.58;98883.56;5112131;28;20185;-62
2023/03/09 09:29:47;;;;;;;10.03;2.40;;;;;;;17.41;54.92;98881.91;5111352;28;20181;-62
2023/03/09 09:32:12;;;;;;;8.83;2.90;;;;;;;17.41;54.50;98893.31;5111979;28;20177;-62
2023/03/09 09:34:38;;;;;;;16.60;2.93;;;;;;;17.41;54.65;98890.47;5112164;28;20165;-62
2023/03/09 09:37:05;;;;;;;21.37;3.80;;;;;;;17.40;54.97;98902.31;5111112;28;20182;-62
2023/03/09 09:39:32;;;;;;;15.83;2.70;;;;;;;17.38;54.84;98902.69;5077557;28;20169;-62
2023/03/09 09:42:03;;;;;;;13.70;2.47;;;;;;;17.40;54.63;98902.31;5111202;28;20427;-62
2023/03/09 09:44:40;;;;;;;11.80;3.10;;;;;;;17.39;54.80;98910.03;5092887;28;20467;-63
2023/03/09 09:47:08;;;;;;;13.73;3.33;;;;;;;17.39;54.94;98912.06;5093362;28;20431;-62
2023/03/09 09:49:41;;;;;;;14.10;3.00;;;;;;;17.38;54.91;98918.97;5076762;28;20875;-62
2023/03/09 09:52:16;;;;;;;10.77;3.60;;;;;;;17.40;54.61;98925.13;5094195;28;20403;-62
2023/03/09 09:54:53;;;;;;;11.37;2.83;;;;;;;17.40;54.78;98920.22;5110839;28;20427;-62
2023/03/09 09:57:39;;;;;;;6.77;2.50;;;;;;;17.38;54.37;98933.25;5079039;28;20457;-62
2023/03/09 10:00:15;;;;;;;17.83;2.87;;;;;;;17.41;54.79;98938.97;5093733;28;20403;-62
2023/03/09 10:03:01;;;;;;;8.50;2.93;;;;;;;17.40;54.97;98937.34;5110558;28;20441;-62
2023/03/09 10:05:35;;;;;;;12.97;3.17;;;;;;;17.39;54.87;98941.44;5098854;28;20981;-62
2023/03/09 10:08:05;;;;;;;9.40;3.00;;;;;;;17.38;54.28;98948.31;5092922;28;20468;-62
2023/03/09 10:10:30;;;;;;;10.37;2.33;;;;;;;17.38;54.93;98956.88;5071590;28;20545;-62
2023/03/09 10:12:56;;;;;;;12.70;2.90;;;;;;;17.39;54.75;98949.97;5090806;28;20436;-61
2023/03/09 10:15:26;;;;;;;9.40;1.90;;;;;;;17.37;54.96;98949.56;5074124;28;20633;-62
2023/03/09 10:18:05;;;;;;;9.00;2.17;;;;;;;17.39;54.83;98963.41;5091538;28;20262;-62
2023/03/09 10:20:45;;;;;;;9.30;2.47;;;;;;;17.38;54.46;98956.88;5093362;28;20400;-62
2023/03/09 10:23:23;;;;;;;11.10;3.17;;;;;;;17.37;54.96;98966.66;5076360;28;20475;-62
2023/03/09 10:25:54;;;;;;;14.77;3.43;;;;;;;17.34;54.22;98970.31;5110595;28;20542;-62
2023/03/09 10:28:20;;;;;;;14.67;3.43;;;;;;;17.37;55.07;98972.38;5093124;28;20494;-62
2023/03/09 10:31:12;;;;;;;16.20;2.70;;;;;;;17.33;54.72;98960.13;5109781;28;20936;-62
2023/03/09 10:33:41;;;;;;;8.77;2.40;;;;;;;17.34;54.91;98960.94;5063043;28;20440;-62
2023/03/09 10:36:21;;;;;;;6.07;2.23;;;;;;;17.31;54.94;98954.00;5110852;28;20407;-62
2023/03/09 10:38:46;;;;;;;12.30;2.30;;;;;;;17.34;54.84;98960.94;5075092;28;20443;-62
2023/03/09 10:41:17;;;;;;;10.40;2.60;;;;;;;17.32;54.82;98964.22;5110729;28;20481;-62
2023/03/09 10:43:42;;;;;;;6.07;2.03;;;;;;;17.33;54.76;98959.31;5110605;28;20882;-62
2023/03/09 10:46:16;;;;;;;8.53;2.47;;;;;;;17.31;54.73;98962.56;5076811;28;20462;-62
2023/03/09 10:48:42;;;;;;;12.17;2.10;;;;;;;17.31;54.59;98968.28;5110532;28;20197;-62
2023/03/09 10:51:27;;;;;;;10.37;2.17;;;;;;;17.30;54.88;98960.94;5109864;28;20431;-62
2023/03/09 10:53:54;;;;;;;16.63;3.53;;;;;;;17.32;54.75;98964.22;5092522;28;20412;-62
2023/03/09 10:56:25;;;;;;;10.10;2.50;;;;;;;17.28;55.00;98962.56;5110679;28;20400;-62
2023/03/09 10:59:03;;;;;;;6.73;2.23;;;;;;;17.36;54.43;98964.22;5109305;28;20448;-62
2023/03/09 11:01:29;;;;;;;9.63;2.40;;;;;;;17.32;54.31;98972.78;5109550;28;20392;-62
2023/03/09 11:03:54;;;;;;;9.27;2.43;;;;;;;17.31;54.38;98965.41;5091212;28;20511;-62
2023/03/09 11:06:34;;;;;;;12.50;2.40;;;;;;;17.32;54.77;98975.63;5090170;28;20432;-62
2023/03/09 11:09:07;;;;;;;9.20;2.40;;;;;;;17.31;54.56;98968.28;5091121;28;20228;-62
2023/03/09 11:11:32;;;;;;;12.37;2.90;;;;;;;17.34;54.38;98970.31;5109535;28;20937;-62
2023/03/09 11:13:57;;;;;;;6.10;1.93;;;;;;;17.36;54.23;98979.28;5109490;28;20403;-62
2023/03/09 11:16:34;;;;;;;10.60;2.40;;;;;;;17.33;54.29;98974.41;5109993;28;20182;-62
2023/03/09 11:19:13;;;;;;;12.57;2.10;;;;;;;17.34;54.49;98978.06;5092431;28;20235;-62
2023/03/09 11:21:57;;;;;;;13.70;2.80;;;;;;;17.31;54.66;98973.97;5109630;28;20866;-62
2023/03/09 11:24:32;;;;;;;9.37;2.07;;;;;;;17.34;54.11;98976.03;5110685;28;20466;-62
2023/03/09 11:27:22;;;;;;;12.00;2.90;;;;;;;17.34;54.76;98980.91;5075040;28;20446;-62
2023/03/09 11:30:08;;;;;;;12.93;2.03;;;;;;;17.32;54.58;98987.03;5077516;28;20476;-62
2023/03/09 11:32:33;;;;;;;6.87;2.07;;;;;;;17.36;54.58;98973.56;5095343;28;20806;-62